Time;durP1;ratioP1;P1;durP2;ratioP2;P2;SDS_P1;SDS_P2;PMS_P1;PMS_P2;Temp;Humidity;BMP_temperature;BMP_pressure;BME280_temperature;BME280_humidity;BME280_pressure;Samples;Min_cycle;Max_cycle;Signal;HPM_P1;HPM_P2
2023/03/27 00:02:07;;;;;;;4.03;1.13;;;0.60;87.60;;;;;;5059139;28;20385;-69
2023/03/27 00:04:34;;;;;;;16.58;2.60;;;0.60;87.70;;;;;;5076149;28;20127;-69
2023/03/27 00:07:02;;;;;;;4.07;1.27;;;0.50;88.20;;;;;;5074588;28;20059;-69
2023/03/27 00:09:30;;;;;;;2.25;1.60;;;0.50;87.80;;;;;;5082391;28;20059;-69
2023/03/27 00:12:13;;;;;;;6.78;1.83;;;0.40;88.30;;;;;;5055908;28;20103;-69
2023/03/27 00:14:40;;;;;;;5.80;1.25;;;0.40;88.80;;;;;;5057276;28;20048;-69
2023/03/27 00:17:07;;;;;;;3.90;1.30;;;0.40;89.00;;;;;;5076434;28;20376;-69
2023/03/27 00:19:35;;;;;;;4.32;1.00;;;0.40;88.40;;;;;;5061384;28;20055;-69
2023/03/27 00:24:33;;;;;;;2.85;1.45;;;0.40;88.60;;;;;;5080369;28;20118;-69
2023/03/27 00:27:00;;;;;;;3.78;1.45;;;0.40;88.50;;;;;;5055707;28;20527;-69
2023/03/27 00:29:27;;;;;;;7.57;1.73;;;0.30;88.60;;;;;;5078505;28;20044;-70
2023/03/27 00:31:53;;;;;;;9.27;1.00;;;0.30;89.10;;;;;;5077391;28;20052;-70
2023/03/27 00:34:20;;;;;;;3.08;1.42;;;0.20;89.40;;;;;;5077878;28;20054;-69
2023/03/27 00:36:49;;;;;;;3.22;0.98;;;0.10;90.10;;;;;;5074416;28;20052;-70
2023/03/27 00:39:18;;;;;;;7.53;1.52;;;0.10;89.90;;;;;;5075810;28;20051;-70
2023/03/27 00:41:44;;;;;;;3.63;1.05;;;0.00;90.00;;;;;;5069362;28;20838;-69
2023/03/27 00:44:33;;;;;;;7.18;1.30;;;0.00;90.40;;;;;;5060345;28;20048;-69
2023/03/27 00:47:01;;;;;;;12.02;1.13;;;0.00;90.50;;;;;;5080406;28;20070;-69
2023/03/27 00:49:32;;;;;;;5.85;1.48;;;0.00;90.40;;;;;;5074336;28;20746;-69
2023/03/27 00:52:02;;;;;;;8.85;1.98;;;0.00;90.90;;;;;;5060985;28;20044;-69
2023/03/27 00:54:33;;;;;;;3.88;1.25;;;0.00;91.50;;;;;;5074058;28;20125;-69
2023/03/27 00:57:04;;;;;;;6.28;0.85;;;0.00;92.00;;;;;;5063137;28;20488;-70
2023/03/27 00:59:35;;;;;;;0.85;0.77;;;0.00;91.90;;;;;;5068800;28;20416;-69
2023/03/27 01:02:03;;;;;;;5.22;1.15;;;0.00;91.70;;;;;;5079429;28;20746;-70
2023/03/27 01:04:32;;;;;;;6.85;1.27;;;0.10;92.20;;;;;;5065258;28;20066;-69
2023/03/27 01:06:59;;;;;;;3.80;1.48;;;0.20;92.20;;;;;;5071294;28;20063;-69
2023/03/27 01:09:26;;;;;;;2.50;1.17;;;0.20;91.30;;;;;;5078938;28;20055;-70
2023/03/27 01:11:59;;;;;;;2.42;1.20;;;0.40;91.70;;;;;;5050136;28;20511;-69
2023/03/27 01:15:04;;;;;;;3.92;1.60;;;0.40;90.80;;;;;;5054808;28;20080;-69
2023/03/27 01:17:49;;;;;;;2.90;1.50;;;0.50;90.20;;;;;;5054212;28;20536;-69
2023/03/27 01:20:35;;;;;;;3.95;1.52;;;0.60;90.20;;;;;;5080653;28;20048;-69
2023/03/27 01:23:38;;;;;;;1.35;1.13;;;0.60;90.10;;;;;;5072138;28;20044;-69
2023/03/27 01:26:56;;;;;;;3.13;0.88;;;0.60;89.80;;;;;;5067807;28;20064;-69
2023/03/27 01:29:50;;;;;;;2.25;1.00;;;0.40;89.80;;;;;;5071182;28;20065;-69
2023/03/27 01:32:28;;;;;;;2.40;1.10;;;0.30;90.10;;;;;;5070115;28;20531;-69
2023/03/27 01:35:22;;;;;;;6.30;1.42;;;0.30;91.20;;;;;;5071839;28;20074;-70
2023/03/27 01:38:04;;;;;;;6.95;1.17;;;0.20;91.40;;;;;;5079484;28;20079;-69
2023/03/27 01:40:40;;;;;;;7.35;1.23;;;0.10;91.40;;;;;;5075548;28;20082;-69
2023/03/27 01:43:12;;;;;;;2.42;1.35;;;0.10;91.90;;;;;;5076377;28;20123;-69
2023/03/27 01:45:57;;;;;;;6.22;1.50;;;0.00;92.00;;;;;;5072923;28;20060;-69
2023/03/27 01:48:38;;;;;;;2.80;1.30;;;0.00;92.20;;;;;;5075820;28;20067;-69
2023/03/27 01:51:21;;;;;;;2.22;1.00;;;0.00;92.60;;;;;;5075651;28;20047;-69
2023/03/27 01:53:56;;;;;;;13.27;1.80;;;-0.10;92.70;;;;;;5081299;28;20062;-69
2023/03/27 01:56:31;;;;;;;2.60;1.10;;;-0.10;92.70;;;;;;5078144;28;20044;-69
2023/03/27 01:59:10;;;;;;;;;;;-0.10;92.50;;;;;;5077746;28;20048;-69
2023/03/27 02:01:41;;;;;;;3.92;1.40;;;-0.20;92.80;;;;;;5058916;28;20284;-69
2023/03/27 02:04:15;;;;;;;5.63;1.30;;;-0.20;92.80;;;;;;5078509;28;20724;-69
2023/03/27 02:06:52;;;;;;;7.90;1.50;;;-0.20;92.50;;;;;;5079956;28;20062;-69
2023/03/27 02:09:23;;;;;;;2.75;1.60;;;-0.20;92.80;;;;;;5068099;28;20442;-69
2023/03/27 02:11:57;;;;;;;2.45;1.60;;;-0.20;92.10;;;;;;5077519;28;20050;-69
2023/03/27 02:14:34;;;;;;;2.67;1.20;;;-0.10;92.00;;;;;;5076188;28;20055;-69
2023/03/27 02:17:09;;;;;;;4.82;1.50;;;-0.10;91.40;;;;;;5075594;28;20044;-69
2023/03/27 02:19:59;;;;;;;4.72;1.65;;;-0.10;90.80;;;;;;5082310;28;20048;-69
2023/03/27 02:22:27;;;;;;;4.95;1.60;;;-0.10;90.40;;;;;;5074693;28;20056;-69
2023/03/27 02:25:20;;;;;;;6.88;1.30;;;-0.10;90.30;;;;;;5078660;28;20154;-69
2023/03/27 02:27:52;;;;;;;5.13;1.42;;;-0.10;90.20;;;;;;5080352;28;20052;-69
2023/03/27 02:30:45;;;;;;;4.22;1.17;;;-0.10;90.10;;;;;;5080142;28;20084;-69
2023/03/27 02:33:49;;;;;;;2.45;1.20;;;-0.10;90.70;;;;;;5053221;28;20044;-69
2023/03/27 02:36:53;;;;;;;2.58;1.13;;;-0.10;89.80;;;;;;5081471;28;20511;-69
2023/03/27 02:39:52;;;;;;;2.70;1.52;;;-0.10;89.30;;;;;;5073114;28;20048;-69
2023/03/27 02:42:40;;;;;;;3.05;1.30;;;-0.10;89.60;;;;;;5057118;28;20162;-69
2023/03/27 02:45:49;;;;;;;5.55;1.10;;;-0.20;89.70;;;;;;5053381;28;20403;-69
2023/03/27 02:48:28;;;;;;;2.67;1.23;;;-0.20;89.70;;;;;;5072327;28;20048;-69
2023/03/27 02:51:07;;;;;;;6.13;1.70;;;-0.30;90.10;;;;;;5082441;28;20048;-69
2023/03/27 02:53:41;;;;;;;4.47;1.67;;;-0.40;90.30;;;;;;5060000;28;20051;-69
2023/03/27 02:56:10;;;;;;;3.60;1.70;;;-0.50;90.80;;;;;;5057737;28;20066;-69
2023/03/27 02:58:48;;;;;;;3.50;1.77;;;-0.50;91.10;;;;;;5062966;28;20416;-69
2023/03/27 03:01:21;;;;;;;4.18;1.70;;;-0.60;91.50;;;;;;5075233;28;20213;-69
2023/03/27 03:03:53;;;;;;;5.20;1.65;;;-0.60;91.20;;;;;;5079783;28;20060;-69
2023/03/27 03:06:28;;;;;;;2.33;1.17;;;-0.60;92.10;;;;;;5076469;28;20666;-69
2023/03/27 03:09:06;;;;;;;6.25;1.08;;;-0.50;91.90;;;;;;5083282;28;20048;-69
2023/03/27 03:11:34;;;;;;;8.82;2.00;;;-0.50;90.50;;;;;;5075629;28;20052;-69
2023/03/27 03:14:01;;;;;;;11.75;1.40;;;-0.50;90.50;;;;;;5075416;28;20418;-69
2023/03/27 03:16:29;;;;;;;4.57;1.38;;;-0.50;90.20;;;;;;5060839;28;20059;-69
2023/03/27 03:18:56;;;;;;;1.92;1.05;;;-0.40;90.70;;;;;;5074607;28;20050;-69
2023/03/27 03:21:23;;;;;;;4.40;1.02;;;-0.40;90.30;;;;;;5078701;28;20070;-69
2023/03/27 03:23:50;;;;;;;4.85;1.35;;;-0.40;89.60;;;;;;5057653;28;20682;-69
2023/03/27 03:26:23;;;;;;;3.63;1.63;;;-0.50;90.20;;;;;;5061877;28;20062;-69
2023/03/27 03:28:50;;;;;;;9.82;1.48;;;-0.50;89.80;;;;;;5075777;28;20051;-69
2023/03/27 03:31:41;;;;;;;1.85;0.98;;;-0.50;89.90;;;;;;5081223;28;20102;-69
2023/03/27 03:34:17;;;;;;;8.35;1.67;;;-0.50;89.50;;;;;;5078715;28;20488;-69
2023/03/27 03:36:48;;;;;;;7.93;1.63;;;-0.50;89.70;;;;;;5056523;28;20591;-70
2023/03/27 03:39:16;;;;;;;9.48;1.70;;;-0.50;90.10;;;;;;5076511;28;20055;-69
2023/03/27 03:41:43;;;;;;;4.85;1.35;;;-0.60;90.60;;;;;;5075690;28;20063;-69
2023/03/27 03:44:09;;;;;;;7.25;1.55;;;-0.60;90.30;;;;;;5081080;28;20055;-70
2023/03/27 03:46:36;;;;;;;12.45;2.10;;;-0.60;90.50;;;;;;5062567;28;20074;-69
2023/03/27 03:49:04;;;;;;;13.85;2.50;;;-0.60;90.80;;;;;;5078303;28;20040;-70
2023/03/27 03:51:32;;;;;;;5.63;2.17;;;-0.70;91.10;;;;;;5079166;28;20044;-69
2023/03/27 03:54:00;;;;;;;8.07;2.15;;;-0.70;91.40;;;;;;5078318;28;20821;-69
2023/03/27 03:56:28;;;;;;;9.50;2.85;;;-0.70;90.90;;;;;;5077035;28;20399;-69
2023/03/27 03:58:55;;;;;;;2.78;1.58;;;-0.80;91.60;;;;;;5079699;28;20053;-69
2023/03/27 04:01:22;;;;;;;3.42;1.85;;;-0.70;91.40;;;;;;5076558;28;20052;-69
2023/03/27 04:03:49;;;;;;;15.07;2.45;;;-0.70;91.60;;;;;;5079600;28;20143;-69
2023/03/27 04:06:19;;;;;;;8.02;1.52;;;-0.70;91.90;;;;;;5075918;28;20095;-70
2023/03/27 04:08:47;;;;;;;9.65;1.65;;;-0.60;91.40;;;;;;5082467;28;20055;-69
2023/03/27 04:11:14;;;;;;;20.38;2.08;;;-0.60;91.40;;;;;;5077311;28;20102;-69
2023/03/27 04:13:41;;;;;;;3.38;1.73;;;-0.50;91.80;;;;;;5080554;28;20048;-70
2023/03/27 04:16:08;;;;;;;22.48;2.33;;;-0.50;91.40;;;;;;5078672;28;20412;-70
2023/03/27 04:18:38;;;;;;;13.68;3.05;;;-0.40;91.90;;;;;;5078040;28;20055;-70
2023/03/27 04:21:13;;;;;;;11.02;3.05;;;-0.40;91.80;;;;;;5079840;28;20127;-70
2023/03/27 04:23:44;;;;;;;7.13;2.53;;;-0.30;91.20;;;;;;5075372;28;20398;-70
2023/03/27 04:26:11;;;;;;;6.25;1.77;;;-0.40;91.30;;;;;;5079259;28;20044;-70
2023/03/27 04:28:38;;;;;;;7.15;1.60;;;-0.40;91.70;;;;;;5076785;28;20106;-70
2023/03/27 04:31:09;;;;;;;13.38;2.08;;;-0.40;91.70;;;;;;5080606;28;20652;-70
2023/03/27 04:33:38;;;;;;;14.52;2.15;;;-0.50;91.60;;;;;;5076389;28;20127;-70
2023/03/27 04:36:07;;;;;;;3.38;1.42;;;-0.60;92.00;;;;;;5075588;28;20070;-70
2023/03/27 04:38:39;;;;;;;4.63;1.75;;;-0.70;91.60;;;;;;5074407;28;20402;-70
2023/03/27 04:41:06;;;;;;;7.45;1.65;;;-0.80;91.70;;;;;;5071369;28;20137;-70
2023/03/27 04:43:35;;;;;;;9.15;1.75;;;-0.90;91.90;;;;;;5080480;28;20063;-70
2023/03/27 04:46:07;;;;;;;6.47;1.83;;;-1.00;92.50;;;;;;5073425;28;20055;-71
2023/03/27 04:48:37;;;;;;;8.73;2.10;;;-1.00;92.80;;;;;;5083617;28;20055;-71
2023/03/27 04:51:05;;;;;;;6.40;1.65;;;-1.10;93.50;;;;;;5072050;28;20045;-71
2023/03/27 04:53:34;;;;;;;15.88;2.40;;;-1.10;93.30;;;;;;5078549;28;20048;-70
2023/03/27 04:56:02;;;;;;;5.38;2.58;;;-1.10;93.80;;;;;;5074850;28;20044;-69
2023/03/27 04:58:29;;;;;;;9.18;1.83;;;-1.20;94.00;;;;;;5080333;28;20058;-70
2023/03/27 05:00:56;;;;;;;10.75;1.80;;;-1.10;94.40;;;;;;5080187;28;20416;-70
2023/03/27 05:03:24;;;;;;;9.60;1.98;;;-1.10;94.40;;;;;;5059701;28;20723;-71
2023/03/27 05:05:52;;;;;;;11.48;2.22;;;-1.20;94.40;;;;;;5071068;28;20056;-70
2023/03/27 05:08:19;;;;;;;9.57;2.50;;;-1.20;95.10;;;;;;5061526;28;20436;-70
2023/03/27 05:10:46;;;;;;;9.02;2.28;;;-1.20;95.00;;;;;;5079122;28;20170;-69
2023/03/27 05:13:13;;;;;;;8.15;1.98;;;-1.20;95.80;;;;;;5071372;28;20048;-69
2023/03/27 05:15:39;;;;;;;5.15;2.08;;;-1.20;95.70;;;;;;5060441;28;20063;-71
2023/03/27 05:18:07;;;;;;;15.02;2.72;;;-1.20;95.80;;;;;;5084912;28;20055;-71
2023/03/27 05:20:35;;;;;;;5.22;2.53;;;-1.10;95.80;;;;;;5085250;28;20102;-71
2023/03/27 05:23:02;;;;;;;8.98;3.25;;;-1.10;96.00;;;;;;5064953;28;20048;-73
2023/03/27 05:25:30;;;;;;;6.85;2.53;;;-1.00;96.20;;;;;;5082137;28;20052;-74
2023/03/27 05:27:58;;;;;;;10.55;3.10;;;-1.00;96.60;;;;;;5065394;28;20114;-71
2023/03/27 05:30:25;;;;;;;9.52;2.85;;;-1.00;96.90;;;;;;5077673;28;20044;-71
2023/03/27 05:32:53;;;;;;;11.43;2.58;;;-0.90;96.40;;;;;;5073901;28;20048;-70
2023/03/27 05:35:22;;;;;;;7.40;2.50;;;-0.70;96.90;;;;;;5066950;28;20055;-70
2023/03/27 05:37:51;;;;;;;17.02;3.03;;;-0.60;96.40;;;;;;5084943;28;20060;-70
2023/03/27 05:40:21;;;;;;;13.60;3.00;;;-0.50;96.50;;;;;;5074753;28;20131;-72
2023/03/27 05:42:50;;;;;;;7.28;3.30;;;-0.40;96.70;;;;;;5081780;28;20059;-72
2023/03/27 05:45:17;;;;;;;10.07;3.33;;;-0.30;95.70;;;;;;5067363;28;20135;-71
2023/03/27 05:47:55;;;;;;;10.48;4.05;;;-0.20;95.50;;;;;;5072614;28;20420;-71
2023/03/27 05:50:25;;;;;;;27.77;4.43;;;-0.20;94.40;;;;;;5067652;28;20067;-72
2023/03/27 05:52:56;;;;;;;9.50;3.83;;;-0.20;94.00;;;;;;5067470;28;20052;-72
2023/03/27 05:55:24;;;;;;;18.83;3.67;;;-0.20;93.70;;;;;;5068098;28;20048;-72
2023/03/27 05:57:53;;;;;;;13.43;3.17;;;-0.10;93.80;;;;;;5061879;28;20131;-72
2023/03/27 06:00:25;;;;;;;11.85;3.00;;;-0.10;93.20;;;;;;5069812;28;20059;-72
2023/03/27 06:02:56;;;;;;;19.05;3.45;;;-0.10;92.60;;;;;;5076815;28;20062;-72
2023/03/27 06:05:25;;;;;;;10.88;2.83;;;-0.10;93.20;;;;;;5070538;28;20084;-72
2023/03/27 06:07:52;;;;;;;10.45;2.60;;;0.00;93.30;;;;;;5067134;28;20742;-72
2023/03/27 06:10:19;;;;;;;8.30;2.45;;;0.00;92.80;;;;;;5070825;28;20063;-72
2023/03/27 06:12:49;;;;;;;9.38;2.33;;;0.00;91.20;;;;;;5076924;28;20461;-72
2023/03/27 06:15:16;;;;;;;10.10;2.60;;;0.10;91.00;;;;;;5071142;28;20077;-72
2023/03/27 06:17:46;;;;;;;2.83;1.73;;;0.20;90.10;;;;;;5086262;28;20078;-72
2023/03/27 06:20:14;;;;;;;4.85;2.22;;;0.20;89.50;;;;;;5068884;28;20063;-72
2023/03/27 06:22:50;;;;;;;14.95;2.33;;;0.30;90.20;;;;;;5066668;28;20088;-72
2023/03/27 06:25:19;;;;;;;6.75;2.45;;;0.30;90.50;;;;;;5080201;28;20405;-72
2023/03/27 06:27:47;;;;;;;9.18;2.85;;;0.50;90.50;;;;;;5067020;28;20052;-72
2023/03/27 06:30:16;;;;;;;6.40;2.10;;;0.60;90.10;;;;;;5073057;28;20119;-72
2023/03/27 06:32:52;;;;;;;5.88;2.13;;;0.90;88.70;;;;;;5064518;28;20071;-72
2023/03/27 06:35:20;;;;;;;8.85;2.28;;;1.30;87.00;;;;;;5065192;28;20052;-72
2023/03/27 06:37:49;;;;;;;12.63;2.40;;;1.70;85.50;;;;;;5070525;28;20064;-72
2023/03/27 06:40:23;;;;;;;12.98;2.20;;;2.20;84.20;;;;;;5066945;28;20048;-72
2023/03/27 06:42:55;;;;;;;5.57;2.40;;;2.70;80.70;;;;;;5077384;28;20084;-72
2023/03/27 06:45:28;;;;;;;2.65;1.90;;;3.30;77.40;;;;;;5056122;28;20062;-73
2023/03/27 06:47:57;;;;;;;6.03;1.67;;;3.60;78.20;;;;;;5076038;28;20428;-73
2023/03/27 06:50:46;;;;;;;4.45;1.85;;;4.40;74.90;;;;;;5065159;28;20055;-73
2023/03/27 06:53:15;;;;;;;2.50;1.52;;;4.70;72.30;;;;;;5080572;28;20058;-73
2023/03/27 06:55:54;;;;;;;3.72;1.77;;;4.50;72.10;;;;;;5082239;28;20061;-74
2023/03/27 06:58:22;;;;;;;11.45;1.98;;;4.90;72.50;;;;;;5082065;28;20613;-74
2023/03/27 07:00:49;;;;;;;3.20;1.48;;;5.60;69.50;;;;;;5081678;28;20058;-72
2023/03/27 07:03:18;;;;;;;2.47;1.20;;;5.90;67.90;;;;;;5061610;28;20050;-73
2023/03/27 07:05:45;;;;;;;6.35;1.40;;;6.60;65.30;;;;;;5082960;28;20105;-73
2023/03/27 07:08:14;;;;;;;6.70;1.48;;;6.20;65.00;;;;;;5076442;28;20098;-72
2023/03/27 07:10:53;;;;;;;2.78;1.08;;;6.60;65.40;;;;;;5081764;28;20050;-73
2023/03/27 07:13:23;;;;;;;2.83;1.20;;;6.50;63.00;;;;;;5059858;28;20051;-72
2023/03/27 07:15:50;;;;;;;8.10;2.10;;;6.90;64.20;;;;;;5073960;28;20051;-73
2023/03/27 07:18:17;;;;;;;3.65;1.63;;;6.80;63.50;;;;;;5080532;28;20389;-73
2023/03/27 07:20:44;;;;;;;6.28;1.50;;;7.50;62.90;;;;;;5073769;28;20470;-73
2023/03/27 07:23:10;;;;;;;3.78;1.30;;;8.40;58.90;;;;;;5061497;28;20056;-72
2023/03/27 07:25:38;;;;;;;4.82;1.50;;;8.80;60.10;;;;;;5083471;28;20412;-73
2023/03/27 07:28:08;;;;;;;3.30;1.13;;;8.70;58.20;;;;;;5061500;28;20052;-73
2023/03/27 07:30:36;;;;;;;2.58;0.93;;;9.10;56.80;;;;;;5082260;28;20060;-74
2023/03/27 07:33:04;;;;;;;4.97;1.10;;;8.90;51.70;;;;;;5083346;28;20043;-74
2023/03/27 07:35:31;;;;;;;3.65;1.10;;;8.30;53.50;;;;;;5066656;28;20063;-73
2023/03/27 07:37:58;;;;;;;4.15;1.00;;;7.50;57.30;;;;;;5076378;28;20059;-73
2023/03/27 07:40:25;;;;;;;4.65;0.95;;;7.40;56.40;;;;;;5075717;28;20052;-74
2023/03/27 07:43:06;;;;;;;2.05;1.00;;;7.80;58.70;;;;;;5079367;28;20151;-74
2023/03/27 07:45:34;;;;;;;4.68;0.82;;;8.50;55.90;;;;;;5060419;28;20456;-74
2023/03/27 07:48:09;;;;;;;3.13;0.93;;;8.90;53.60;;;;;;5069157;28;20048;-74
2023/03/27 07:50:37;;;;;;;4.07;1.25;;;8.10;52.20;;;;;;5075117;28;20417;-74
2023/03/27 07:53:05;;;;;;;4.22;1.08;;;7.10;59.20;;;;;;5072735;28;20078;-74
2023/03/27 07:55:35;;;;;;;4.05;1.00;;;7.20;55.40;;;;;;5075655;28;20055;-74
2023/03/27 07:58:02;;;;;;;12.18;1.50;;;6.60;58.40;;;;;;5068157;28;20804;-74
2023/03/27 08:00:31;;;;;;;8.60;1.17;;;6.60;57.40;;;;;;5081961;28;20052;-73
2023/03/27 08:03:10;;;;;;;5.97;0.63;;;6.00;58.60;;;;;;5061410;28;20052;-73
2023/03/27 08:05:37;;;;;;;3.90;1.17;;;5.30;59.20;;;;;;5079296;28;20055;-75
2023/03/27 08:08:04;;;;;;;5.80;1.13;;;5.00;59.90;;;;;;5055543;28;20048;-75
2023/03/27 08:10:31;;;;;;;3.00;0.70;;;4.60;60.70;;;;;;5081774;28;20048;-73
2023/03/27 08:12:58;;;;;;;11.18;1.35;;;4.90;63.00;;;;;;5082295;28;20048;-74
2023/03/27 08:15:25;;;;;;;2.03;0.80;;;4.90;60.50;;;;;;5079446;28;20059;-74
2023/03/27 08:17:53;;;;;;;4.18;0.90;;;4.60;61.10;;;;;;5082590;28;20048;-73
2023/03/27 08:20:22;;;;;;;0.93;0.80;;;4.60;61.10;;;;;;5074631;28;20056;-74
2023/03/27 08:22:51;;;;;;;1.60;0.52;;;4.30;61.90;;;;;;5081543;28;20203;-74
2023/03/27 08:25:18;;;;;;;0.77;0.50;;;4.00;60.50;;;;;;5074654;28;20063;-74
2023/03/27 08:27:45;;;;;;;3.60;1.00;;;3.70;63.30;;;;;;5082535;28;20052;-74
2023/03/27 08:30:13;;;;;;;4.95;0.95;;;4.20;62.20;;;;;;5081878;28;20081;-74
2023/03/27 08:32:42;;;;;;;1.45;0.68;;;3.80;61.40;;;;;;5081032;28;20790;-74
2023/03/27 08:35:10;;;;;;;1.90;0.85;;;3.80;63.60;;;;;;5082575;28;20040;-74
2023/03/27 08:37:37;;;;;;;2.00;0.85;;;3.90;67.40;;;;;;5079310;28;20059;-73
2023/03/27 08:40:12;;;;;;;2.85;1.10;;;5.30;63.90;;;;;;5056650;28;20124;-74
2023/03/27 08:42:42;;;;;;;1.05;0.60;;;7.10;60.90;;;;;;5073090;28;20052;-73
2023/03/27 08:45:28;;;;;;;2.63;0.90;;;8.80;56.80;;;;;;5077804;28;20063;-73
2023/03/27 08:48:03;;;;;;;2.63;0.73;;;9.10;54.70;;;;;;5064248;28;20070;-73
2023/03/27 08:50:39;;;;;;;1.23;0.73;;;10.20;53.50;;;;;;5082911;28;20059;-74
2023/03/27 08:53:16;;;;;;;3.72;0.80;;;9.80;53.30;;;;;;5077633;28;20040;-72
2023/03/27 08:55:43;;;;;;;3.53;1.00;;;10.60;50.80;;;;;;5078428;28;20046;-71
2023/03/27 08:58:19;;;;;;;14.57;1.15;;;8.80;48.60;;;;;;5077784;28;20044;-72
2023/03/27 09:00:57;;;;;;;4.03;1.10;;;7.50;54.60;;;;;;5076710;28;20056;-70
2023/03/27 09:03:30;;;;;;;9.95;1.90;;;8.70;53.30;;;;;;5061028;28;20051;-71
2023/03/27 09:06:07;;;;;;;4.18;1.05;;;10.60;51.90;;;;;;5078911;28;20760;-72
2023/03/27 09:08:45;;;;;;;1.15;0.68;;;11.40;46.90;;;;;;5082622;28;20174;-74
2023/03/27 09:11:44;;;;;;;1.10;0.60;;;10.80;44.80;;;;;;5063438;28;20040;-73
2023/03/27 09:14:25;;;;;;;1.63;0.90;;;9.60;51.00;;;;;;4993278;28;20049;-73
2023/03/27 09:16:56;;;;;;;5.47;0.93;;;9.30;47.40;;;;;;5079789;28;20048;-74
2023/03/27 09:19:30;;;;;;;4.22;1.25;;;8.60;49.30;;;;;;5069181;28;20048;-74
2023/03/27 09:22:12;;;;;;;0.75;0.60;;;8.90;49.00;;;;;;5051889;28;20056;-74
2023/03/27 09:24:43;;;;;;;3.13;0.77;;;8.90;48.80;;;;;;5081903;28;20135;-74
2023/03/27 09:27:35;;;;;;;1.23;0.70;;;9.30;47.60;;;;;;5062573;28;20052;-74
2023/03/27 09:30:11;;;;;;;1.48;0.60;;;10.60;51.00;;;;;;5065584;28;20047;-75
2023/03/27 09:32:38;;;;;;;3.60;0.57;;;10.90;47.40;;;;;;5080226;28;20048;-74
2023/03/27 09:35:05;;;;;;;3.40;0.70;;;11.10;46.90;;;;;;5080640;28;20486;-73
2023/03/27 09:37:33;;;;;;;2.78;0.70;;;11.20;47.20;;;;;;5081825;28;20048;-73
2023/03/27 09:40:06;;;;;;;5.00;0.63;;;11.80;45.20;;;;;;5082096;28;20539;-74
2023/03/27 09:42:38;;;;;;;3.42;0.60;;;11.80;44.60;;;;;;5080458;28;20040;-74
2023/03/27 09:45:09;;;;;;;3.30;0.57;;;12.50;41.50;;;;;;5080969;28;20054;-74
2023/03/27 09:47:49;;;;;;;1.63;0.60;;;11.60;42.50;;;;;;5080373;28;20408;-74
2023/03/27 09:50:42;;;;;;;1.40;0.68;;;10.70;45.10;;;;;;5079122;28;20559;-74
2023/03/27 09:53:17;;;;;;;10.00;1.98;;;10.30;45.30;;;;;;5080927;28;20043;-73
2023/03/27 09:56:00;;;;;;;13.88;1.50;;;8.80;46.70;;;;;;5081732;28;21646;-73
2023/03/27 09:58:45;;;;;;;5.68;3.25;;;8.20;47.00;;;;;;5072546;28;20450;-74
2023/03/27 10:01:29;;;;;;;2.78;1.15;;;7.80;49.60;;;;;;5097613;28;20090;-72
2023/03/27 10:03:58;;;;;;;3.67;1.40;;;8.90;52.90;;;;;;5079385;28;20052;-72
2023/03/27 10:06:41;;;;;;;1.05;0.95;;;10.80;51.00;;;;;;5080874;28;20139;-71
2023/03/27 10:09:21;;;;;;;19.35;7.13;;;11.60;49.60;;;;;;5068710;28;20082;-73
2023/03/27 10:11:50;;;;;;;3.08;1.90;;;11.30;43.40;;;;;;5072893;28;20051;-72
2023/03/27 10:14:21;;;;;;;3.53;1.00;;;9.80;47.20;;;;;;5077208;28;20056;-72
2023/03/27 10:16:48;;;;;;;1.90;0.70;;;9.80;46.90;;;;;;5084560;28;20048;-72
2023/03/27 10:19:20;;;;;;;3.47;0.70;;;8.80;48.20;;;;;;5078774;28;20510;-72
2023/03/27 10:21:47;;;;;;;1.80;0.60;;;8.80;47.10;;;;;;5083091;28;20052;-72
2023/03/27 10:24:34;;;;;;;2.65;0.57;;;8.40;49.10;;;;;;5082789;28;20051;-72
2023/03/27 10:27:22;;;;;;;3.22;0.90;;;8.30;48.80;;;;;;5076059;28;20160;-72
2023/03/27 10:29:49;;;;;;;3.42;1.20;;;7.80;49.40;;;;;;5074186;28;20156;-72
2023/03/27 10:32:16;;;;;;;2.00;0.80;;;7.00;55.20;;;;;;5072714;28;20050;-72
2023/03/27 10:34:56;;;;;;;9.82;0.70;;;7.80;51.40;;;;;;5080156;28;20511;-72
2023/03/27 10:37:32;;;;;;;3.40;0.98;;;7.40;54.80;;;;;;5072615;28;20049;-72
2023/03/27 10:40:01;;;;;;;2.92;0.70;;;8.90;54.30;;;;;;5060416;28;20051;-72
2023/03/27 10:42:31;;;;;;;2.20;0.68;;;10.10;47.40;;;;;;5063607;28;20051;-72
2023/03/27 10:44:58;;;;;;;1.67;0.75;;;8.80;48.00;;;;;;5079486;28;20493;-72
2023/03/27 10:47:32;;;;;;;2.55;0.80;;;7.80;50.70;;;;;;5082482;28;20108;-72
2023/03/27 10:50:14;;;;;;;6.32;1.38;;;8.10;58.40;;;;;;5078197;28;20062;-72
2023/03/27 10:52:59;;;;;;;3.75;1.63;;;9.50;55.90;;;;;;5081003;28;20078;-72
2023/03/27 10:55:47;;;;;;;1.23;0.77;;;11.00;53.10;;;;;;5060618;28;20568;-72
2023/03/27 10:58:33;;;;;;;2.75;0.70;;;12.60;50.30;;;;;;5055726;28;20434;-72
2023/03/27 11:01:25;;;;;;;4.38;0.93;;;13.80;50.70;;;;;;5078582;28;20048;-73
2023/03/27 11:04:16;;;;;;;2.03;1.00;;;14.60;45.20;;;;;;5083180;28;20056;-73
2023/03/27 11:06:46;;;;;;;0.50;0.47;;;15.50;44.90;;;;;;5082236;28;20114;-73
2023/03/27 11:09:22;;;;;;;0.82;0.60;;;14.90;44.00;;;;;;5069184;28;20125;-73
2023/03/27 11:12:03;;;;;;;4.13;0.80;;;14.30;42.70;;;;;;5074386;28;20051;-73
2023/03/27 11:15:07;;;;;;;2.05;0.80;;;15.30;41.90;;;;;;5079352;28;20051;-73
2023/03/27 11:17:42;;;;;;;3.00;0.80;;;16.10;42.70;;;;;;5075584;28;20051;-73
2023/03/27 11:20:20;;;;;;;1.20;0.75;;;15.30;44.60;;;;;;5085746;28;20083;-73
2023/03/27 11:22:56;;;;;;;2.10;0.80;;;16.80;41.80;;;;;;5073760;28;20083;-73
2023/03/27 11:25:38;;;;;;;1.35;0.93;;;17.00;42.60;;;;;;5066128;28;20055;-73
2023/03/27 11:28:32;;;;;;;1.45;0.50;;;17.00;40.30;;;;;;5077117;28;20063;-73
2023/03/27 11:31:36;;;;;;;1.92;0.75;;;14.50;42.90;;;;;;5071842;28;20066;-73
2023/03/27 11:34:34;;;;;;;4.22;1.10;;;14.60;43.40;;;;;;5072087;28;20047;-73
2023/03/27 11:37:27;;;;;;;1.55;0.68;;;15.00;41.00;;;;;;5069573;28;20452;-73
2023/03/27 11:40:06;;;;;;;2.42;0.68;;;15.00;44.00;;;;;;5075217;28;20047;-73
2023/03/27 11:42:39;;;;;;;2.42;0.80;;;14.40;40.50;;;;;;5081576;28;20476;-72
2023/03/27 11:45:12;;;;;;;6.28;1.00;;;14.20;43.30;;;;;;5083412;28;20044;-73
2023/03/27 11:48:08;;;;;;;7.75;0.90;;;12.60;42.40;;;;;;5072168;28;20063;-72
2023/03/27 11:50:48;;;;;;;3.00;1.08;;;10.50;50.30;;;;;;5065386;28;20138;-72
2023/03/27 11:53:35;;;;;;;5.00;1.13;;;10.90;49.60;;;;;;5078651;28;20044;-73
2023/03/27 11:56:10;;;;;;;6.93;0.70;;;11.60;44.70;;;;;;5070936;28;20048;-72
2023/03/27 11:58:49;;;;;;;4.60;0.90;;;9.40;44.10;;;;;;5073052;28;20051;-72
2023/03/27 12:01:21;;;;;;;5.75;0.80;;;8.90;52.50;;;;;;5075818;28;20059;-72
2023/03/27 12:04:07;;;;;;;6.13;1.45;;;10.60;48.10;;;;;;5072256;28;20079;-72
2023/03/27 12:06:56;;;;;;;7.63;1.35;;;10.20;48.20;;;;;;5085658;28;20052;-72
2023/03/27 12:09:54;;;;;;;2.58;0.68;;;11.10;46.50;;;;;;5064864;28;20059;-73
2023/03/27 12:12:38;;;;;;;2.95;0.70;;;11.30;42.80;;;;;;5072565;28;20048;-72
2023/03/27 12:15:08;;;;;;;4.07;0.80;;;9.70;48.50;;;;;;5070412;28;20052;-72
2023/03/27 12:17:59;;;;;;;5.82;0.73;;;9.80;45.00;;;;;;5065355;28;20116;-72
2023/03/27 12:20:41;;;;;;;4.50;0.85;;;9.00;48.50;;;;;;5064057;28;20052;-72
2023/03/27 12:23:25;;;;;;;1.80;0.98;;;9.60;50.40;;;;;;5077626;28;20044;-72
2023/03/27 12:26:27;;;;;;;3.17;1.50;;;10.90;43.10;;;;;;5065367;28;20055;-72
2023/03/27 12:28:57;;;;;;;6.85;0.90;;;10.20;48.10;;;;;;4988462;28;20048;-72
2023/03/27 12:31:42;;;;;;;4.40;0.80;;;10.60;46.20;;;;;;5073622;28;20044;-72
2023/03/27 12:34:37;;;;;;;2.87;0.50;;;11.00;42.80;;;;;;5073046;28;20664;-73
2023/03/27 12:37:07;;;;;;;5.70;0.90;;;11.50;41.60;;;;;;5071190;28;20160;-72
2023/03/27 12:39:55;;;;;;;2.95;0.73;;;11.80;41.90;;;;;;5076805;28;20314;-72
2023/03/27 12:42:43;;;;;;;2.65;0.70;;;12.30;42.80;;;;;;5058108;28;20067;-72
2023/03/27 12:45:15;;;;;;;4.75;0.80;;;11.90;42.40;;;;;;5073368;28;20070;-72
2023/03/27 12:48:16;;;;;;;11.20;0.80;;;12.80;42.10;;;;;;5062629;28;20048;-72
2023/03/27 12:50:42;;;;;;;5.10;0.70;;;12.70;37.50;;;;;;5052827;28;20052;-72
2023/03/27 12:53:25;;;;;;;4.72;0.80;;;11.90;43.50;;;;;;5082890;28;20043;-72
2023/03/27 12:56:15;;;;;;;4.30;0.65;;;11.00;40.30;;;;;;5071389;28;20050;-72
2023/03/27 12:58:44;;;;;;;2.50;0.47;;;9.50;41.40;;;;;;5068399;28;20060;-72
2023/03/27 13:01:34;;;;;;;7.55;0.93;;;9.20;44.80;;;;;;5071920;28;20571;-72
2023/03/27 13:04:18;;;;;;;3.47;0.93;;;9.60;45.70;;;;;;5075858;28;20127;-72
2023/03/27 13:07:06;;;;;;;2.88;0.85;;;9.50;49.10;;;;;;5083604;28;20048;-72
2023/03/27 13:09:58;;;;;;;5.35;0.80;;;10.00;44.50;;;;;;5083621;28;20478;-72
2023/03/27 13:12:31;;;;;;;3.60;0.68;;;9.60;46.60;;;;;;5071500;28;20055;-72
2023/03/27 13:15:07;;;;;;;9.05;1.40;;;9.30;45.90;;;;;;5078353;28;20059;-72
2023/03/27 13:18:01;;;;;;;6.43;1.27;;;9.00;45.60;;;;;;5081209;28;20127;-72
2023/03/27 13:20:53;;;;;;;9.10;1.27;;;8.50;47.80;;;;;;5050345;28;20062;-72
2023/03/27 13:23:35;;;;;;;3.45;0.90;;;8.90;46.40;;;;;;5079112;28;20052;-72
2023/03/27 13:26:26;;;;;;;3.15;0.75;;;8.50;46.70;;;;;;5076931;28;20048;-72
2023/03/27 13:28:55;;;;;;;3.30;0.77;;;8.50;48.00;;;;;;5062274;28;20048;-72
2023/03/27 13:31:44;;;;;;;9.15;0.70;;;8.70;47.20;;;;;;5061946;28;20054;-72
2023/03/27 13:34:33;;;;;;;12.68;1.08;;;8.80;48.60;;;;;;5055622;28;20059;-72